Time;durP1;ratioP1;P1;durP2;ratioP2;P2;SDS_P1;SDS_P2;PMS_P1;PMS_P2;Temp;Humidity;BMP_temperature;BMP_pressure;BME280_temperature;BME280_humidity;BME280_pressure;Samples;Min_cycle;Max_cycle;Signal;HPM_P1;HPM_P2
2021/07/09 00:02:35;;;;;;;516.13;412.70;;;;;;;;;;4954120;29;20043;-84
2021/07/09 00:05:01;;;;;;;506.10;410.83;;;;;;;;;;4922107;29;20059;-82
2021/07/09 00:07:27;;;;;;;507.75;409.23;;;;;;;;;;4911905;29;20028;-83
2021/07/09 00:09:53;;;;;;;585.88;487.73;;;;;;;;;;4918182;29;20039;-84
2021/07/09 00:12:19;;;;;;;517.58;420.70;;;;;;;;;;4913971;29;20027;-84
2021/07/09 00:14:45;;;;;;;688.13;595.88;;;;;;;;;;4916851;29;20031;-83
2021/07/09 00:17:11;;;;;;;684.08;572.67;;;;;;;;;;4915252;29;20403;-83
2021/07/09 00:19:37;;;;;;;711.83;598.83;;;;;;;;;;4930049;29;20107;-83
2021/07/09 00:22:16;;;;;;;923.13;823.97;;;;;;;;;;4922150;29;20115;-82
2021/07/09 00:24:42;;;;;;;657.92;534.05;;;;;;;;;;4919371;29;20503;-83
2021/07/09 00:27:08;;;;;;;713.05;596.67;;;;;;;;;;4919255;29;20027;-83
2021/07/09 00:29:34;;;;;;;754.63;660.00;;;;;;;;;;4935796;29;20484;-82
2021/07/09 00:32:00;;;;;;;818.17;729.20;;;;;;;;;;4924536;29;20020;-83
2021/07/09 00:34:27;;;;;;;644.95;520.55;;;;;;;;;;4916035;29;20099;-83
2021/07/09 00:36:53;;;;;;;616.65;500.42;;;;;;;;;;4916770;29;20035;-82
2021/07/09 00:39:19;;;;;;;735.38;630.05;;;;;;;;;;4933357;29;20091;-82
2021/07/09 00:41:45;;;;;;;781.53;692.67;;;;;;;;;;4918940;29;20024;-82
2021/07/09 00:44:11;;;;;;;744.60;633.30;;;;;;;;;;4916199;29;20039;-83
2021/07/09 00:46:41;;;;;;;738.88;630.33;;;;;;;;;;4912895;29;20086;-83
2021/07/09 00:49:08;;;;;;;1041.68;935.38;;;;;;;;;;4927210;29;20027;-84
2021/07/09 00:51:34;;;;;;;639.25;514.03;;;;;;;;;;4913107;29;20484;-83
2021/07/09 00:54:01;;;;;;;713.50;597.42;;;;;;;;;;4915744;29;20079;-83
2021/07/09 00:56:28;;;;;;;753.80;646.47;;;;;;;;;;4913291;29;20044;-83
2021/07/09 00:58:54;;;;;;;762.97;664.13;;;;;;;;;;4918934;29;20031;-83
2021/07/09 01:01:21;;;;;;;760.85;658.67;;;;;;;;;;4915361;29;20118;-83
2021/07/09 01:03:47;;;;;;;728.22;621.17;;;;;;;;;;4910840;29;20032;-83
2021/07/09 01:06:14;;;;;;;633.13;511.20;;;;;;;;;;4930641;29;20048;-83
2021/07/09 01:08:40;;;;;;;696.00;574.67;;;;;;;;;;4953424;29;20042;-83
2021/07/09 01:11:07;;;;;;;662.60;551.78;;;;;;;;;;4935997;29;20063;-83
2021/07/09 01:13:34;;;;;;;556.60;448.48;;;;;;;;;;4953291;29;20497;-83
2021/07/09 01:16:07;;;;;;;524.13;416.08;;;;;;;;;;4932589;29;20031;-83
2021/07/09 01:18:33;;;;;;;514.88;408.52;;;;;;;;;;4936331;29;20487;-82
2021/07/09 01:20:59;;;;;;;557.97;443.80;;;;;;;;;;4934989;29;20027;-83
2021/07/09 01:23:27;;;;;;;833.20;740.55;;;;;;;;;;4934838;29;20022;-83
2021/07/09 01:25:53;;;;;;;712.60;599.05;;;;;;;;;;4935071;29;20027;-83
2021/07/09 01:28:19;;;;;;;617.28;491.45;;;;;;;;;;4941666;29;20395;-82
2021/07/09 01:30:45;;;;;;;639.20;520.00;;;;;;;;;;4935921;29;20114;-82
2021/07/09 01:33:11;;;;;;;603.75;482.52;;;;;;;;;;4932336;29;20493;-83
2021/07/09 01:35:37;;;;;;;670.35;543.22;;;;;;;;;;4934255;29;20054;-83
2021/07/09 01:38:06;;;;;;;702.58;584.30;;;;;;;;;;4937379;29;20027;-83
2021/07/09 01:40:32;;;;;;;1019.17;912.28;;;;;;;;;;4932047;29;20778;-84
2021/07/09 01:42:59;;;;;;;792.78;573.17;;;;;;;;;;4932581;29;20036;-85
2021/07/09 01:45:25;;;;;;;658.85;532.35;;;;;;;;;;4931112;29;20035;-83
2021/07/09 01:47:51;;;;;;;647.97;526.63;;;;;;;;;;4932362;29;20035;-84
2021/07/09 01:50:18;;;;;;;598.40;478.33;;;;;;;;;;4953159;28;20023;-82
2021/07/09 01:52:45;;;;;;;769.50;657.72;;;;;;;;;;4936769;29;20028;-83
2021/07/09 01:55:12;;;;;;;945.92;848.67;;;;;;;;;;4931619;29;20027;-84
2021/07/09 01:57:38;;;;;;;641.03;512.05;;;;;;;;;;4931443;29;20122;-84
2021/07/09 02:00:08;;;;;;;659.65;533.22;;;;;;;;;;4935997;29;20031;-84
2021/07/09 02:02:34;;;;;;;;;;;;;;;;;;4937440;29;20074;-85
2021/07/09 02:05:00;;;;;;;666.83;523.92;;;;;;;;;;4928480;29;20334;-85
2021/07/09 02:07:26;;;;;;;671.75;539.85;;;;;;;;;;4933868;29;20045;-83
2021/07/09 02:09:54;;;;;;;696.33;559.05;;;;;;;;;;4944180;28;20024;-84
2021/07/09 02:12:22;;;;;;;714.28;589.70;;;;;;;;;;4944618;28;20106;-85
2021/07/09 02:14:48;;;;;;;746.92;621.47;;;;;;;;;;4943501;28;20614;-86
2021/07/09 02:17:15;;;;;;;919.20;822.35;;;;;;;;;;4920035;29;20067;-87
2021/07/09 02:19:45;;;;;;;621.58;478.65;;;;;;;;;;4924498;29;20504;-88
2021/07/09 02:22:12;;;;;;;757.03;633.25;;;;;;;;;;4934873;29;20038;-86
2021/07/09 02:24:39;;;;;;;731.90;604.22;;;;;;;;;;4912678;29;20090;-87
2021/07/09 02:27:05;;;;;;;650.03;512.78;;;;;;;;;;4932343;29;20038;-86
2021/07/09 02:29:32;;;;;;;666.75;529.30;;;;;;;;;;4936384;29;20086;-86
2021/07/09 02:31:59;;;;;;;927.70;829.45;;;;;;;;;;4948195;29;20030;-87
2021/07/09 02:34:26;;;;;;;722.40;582.28;;;;;;;;;;4932986;29;20466;-86
2021/07/09 02:36:55;;;;;;;821.97;649.13;;;;;;;;;;4918257;29;20634;-87
2021/07/09 02:39:21;;;;;;;881.10;785.17;;;;;;;;;;4918779;29;20503;-86
2021/07/09 02:41:47;;;;;;;739.25;603.42;;;;;;;;;;4933861;29;20031;-87
2021/07/09 02:44:13;;;;;;;784.95;663.65;;;;;;;;;;4919921;29;20379;-88
2021/07/09 02:46:39;;;;;;;818.78;639.78;;;;;;;;;;4930267;29;20110;-89
2021/07/09 02:49:05;;;;;;;690.03;540.50;;;;;;;;;;4934486;29;20663;-88
2021/07/09 02:51:32;;;;;;;648.42;515.13;;;;;;;;;;4936949;29;20036;-87
2021/07/09 02:53:58;;;;;;;812.03;472.17;;;;;;;;;;4934385;29;20034;-89
2021/07/09 02:56:24;;;;;;;823.45;646.03;;;;;;;;;;4929463;29;20032;-87
2021/07/09 02:58:50;;;;;;;504.55;388.48;;;;;;;;;;4915420;29;20464;-85
2021/07/09 03:01:16;;;;;;;513.47;395.00;;;;;;;;;;4946728;29;20043;-84
2021/07/09 03:03:45;;;;;;;510.42;389.08;;;;;;;;;;4929724;29;20122;-83
2021/07/09 03:06:11;;;;;;;510.00;394.40;;;;;;;;;;4942896;29;20047;-81
2021/07/09 03:08:37;;;;;;;514.42;396.70;;;;;;;;;;4944435;29;20078;-80
2021/07/09 03:11:03;;;;;;;478.73;374.25;;;;;;;;;;4935177;29;20058;-85
2021/07/09 03:13:29;;;;;;;479.30;378.20;;;;;;;;;;4945453;28;20051;-86
2021/07/09 03:15:57;;;;;;;474.88;365.83;;;;;;;;;;4941907;28;20047;-86
2021/07/09 03:18:23;;;;;;;476.02;367.67;;;;;;;;;;4930797;29;20034;-86
2021/07/09 03:20:49;;;;;;;482.75;375.58;;;;;;;;;;4937109;29;20039;-86
2021/07/09 03:23:15;;;;;;;482.08;375.63;;;;;;;;;;4933090;29;20039;-85
2021/07/09 03:25:41;;;;;;;487.63;378.17;;;;;;;;;;4940278;29;20140;-86
2021/07/09 03:28:10;;;;;;;487.10;373.13;;;;;;;;;;4940692;29;20078;-86
2021/07/09 03:30:36;;;;;;;485.42;371.23;;;;;;;;;;4929207;29;20038;-85
2021/07/09 03:33:02;;;;;;;489.67;377.20;;;;;;;;;;4931736;29;20036;-86
2021/07/09 03:35:28;;;;;;;488.42;371.67;;;;;;;;;;4953176;28;20024;-84
2021/07/09 03:37:54;;;;;;;489.38;375.30;;;;;;;;;;4953521;29;20546;-84
2021/07/09 03:40:20;;;;;;;492.80;383.75;;;;;;;;;;4939697;29;20040;-83
2021/07/09 03:42:46;;;;;;;491.17;374.52;;;;;;;;;;4954569;29;20503;-84
2021/07/09 03:45:12;;;;;;;495.38;386.55;;;;;;;;;;4938651;29;20490;-83
2021/07/09 03:47:38;;;;;;;487.98;368.45;;;;;;;;;;4952644;29;20028;-83
2021/07/09 03:50:24;;;;;;;493.50;376.48;;;;;;;;;;4939310;29;20043;-83
2021/07/09 03:52:50;;;;;;;496.60;375.65;;;;;;;;;;4934900;29;20364;-83
2021/07/09 03:55:16;;;;;;;496.52;374.20;;;;;;;;;;4943653;28;20015;-83
2021/07/09 03:57:42;;;;;;;501.45;384.15;;;;;;;;;;4939439;29;20031;-82
2021/07/09 04:00:09;;;;;;;500.48;381.42;;;;;;;;;;4956746;29;20031;-82
2021/07/09 04:02:48;;;;;;;497.35;378.88;;;;;;;;;;4932528;29;20032;-82
2021/07/09 04:05:14;;;;;;;511.92;387.80;;;;;;;;;;4951649;29;20048;-81
2021/07/09 04:07:41;;;;;;;504.23;382.35;;;;;;;;;;4949523;28;20031;-81
2021/07/09 04:10:07;;;;;;;507.42;387.20;;;;;;;;;;4953561;29;20035;-81
2021/07/09 04:12:33;;;;;;;506.65;387.63;;;;;;;;;;4928101;29;20027;-81
2021/07/09 04:15:23;;;;;;;504.85;384.75;;;;;;;;;;4933471;28;20023;-81
2021/07/09 04:17:49;;;;;;;507.58;378.15;;;;;;;;;;4951561;29;20034;-81
2021/07/09 04:20:15;;;;;;;505.13;378.60;;;;;;;;;;4935300;29;20068;-81
2021/07/09 04:22:41;;;;;;;505.38;381.80;;;;;;;;;;4933039;29;20515;-81
2021/07/09 04:25:09;;;;;;;505.17;378.05;;;;;;;;;;4929321;29;20072;-81
2021/07/09 04:27:59;;;;;;;523.72;389.52;;;;;;;;;;4930390;29;20130;-81
2021/07/09 04:30:25;;;;;;;506.30;372.45;;;;;;;;;;4952634;29;20055;-81
2021/07/09 04:32:51;;;;;;;512.45;380.70;;;;;;;;;;4953736;29;20023;-80
2021/07/09 04:35:17;;;;;;;519.38;391.25;;;;;;;;;;4953992;28;20074;-81
2021/07/09 04:37:43;;;;;;;578.65;438.23;;;;;;;;;;4942699;29;20063;-81
2021/07/09 04:40:15;;;;;;;531.33;400.27;;;;;;;;;;4933168;29;20046;-81
2021/07/09 04:42:42;;;;;;;610.20;464.25;;;;;;;;;;4942450;29;20162;-81
2021/07/09 04:45:08;;;;;;;681.70;538.95;;;;;;;;;;4922039;29;20082;-81
2021/07/09 04:47:34;;;;;;;604.10;467.75;;;;;;;;;;4947752;29;20044;-81
2021/07/09 04:50:00;;;;;;;675.50;529.90;;;;;;;;;;4925018;29;20827;-81
2021/07/09 04:52:48;;;;;;;524.08;400.50;;;;;;;;;;4938597;29;20027;-82
2021/07/09 04:55:15;;;;;;;522.08;397.38;;;;;;;;;;4938555;29;20071;-81
2021/07/09 04:57:41;;;;;;;522.65;400.15;;;;;;;;;;4934924;29;20028;-82
2021/07/09 05:03:10;;;;;;;530.40;399.45;;;;;;;;;;4950968;29;20038;-82
2021/07/09 05:05:36;;;;;;;534.97;410.02;;;;;;;;;;4931921;29;20501;-82
2021/07/09 05:08:02;;;;;;;534.70;412.15;;;;;;;;;;4952581;29;20027;-82
2021/07/09 05:10:28;;;;;;;583.28;455.42;;;;;;;;;;4931241;28;20122;-83
2021/07/09 05:12:54;;;;;;;574.30;453.23;;;;;;;;;;4927612;29;20126;-83
2021/07/09 05:15:20;;;;;;;566.10;442.25;;;;;;;;;;4932208;28;20028;-83
2021/07/09 05:17:46;;;;;;;590.40;460.75;;;;;;;;;;4933130;28;20035;-83
2021/07/09 05:20:12;;;;;;;598.72;467.00;;;;;;;;;;4928415;29;20024;-83
2021/07/09 05:22:38;;;;;;;602.53;471.13;;;;;;;;;;4926127;29;20054;-83
2021/07/09 05:25:05;;;;;;;827.88;694.13;;;;;;;;;;4943434;29;20039;-84
2021/07/09 05:27:31;;;;;;;526.65;411.85;;;;;;;;;;4940916;29;20511;-84
2021/07/09 05:29:58;;;;;;;581.00;462.65;;;;;;;;;;4937945;28;20027;-83
2021/07/09 05:32:28;;;;;;;498.30;398.23;;;;;;;;;;4937479;29;20098;-82
2021/07/09 05:34:56;;;;;;;508.58;404.70;;;;;;;;;;4936994;29;20100;-83
2021/07/09 05:37:23;;;;;;;502.83;401.63;;;;;;;;;;4937285;29;20031;-82
2021/07/09 05:39:49;;;;;;;500.33;399.77;;;;;;;;;;4937572;29;20031;-82
2021/07/09 05:42:15;;;;;;;504.10;402.23;;;;;;;;;;4932121;29;20079;-84
2021/07/09 05:44:42;;;;;;;506.38;407.70;;;;;;;;;;4923623;29;20079;-84
2021/07/09 05:47:27;;;;;;;491.00;399.77;;;;;;;;;;4950261;28;20073;-83
2021/07/09 05:49:53;;;;;;;490.63;398.98;;;;;;;;;;4937473;29;20023;-84
2021/07/09 05:52:19;;;;;;;490.20;396.55;;;;;;;;;;4954704;29;20015;-82
2021/07/09 05:54:45;;;;;;;488.27;403.48;;;;;;;;;;4939573;29;20031;-86
2021/07/09 05:57:11;;;;;;;489.40;400.52;;;;;;;;;;4934441;29;20090;-83
2021/07/09 05:59:55;;;;;;;490.00;402.85;;;;;;;;;;4936350;29;20070;-83
2021/07/09 06:02:21;;;;;;;501.02;401.92;;;;;;;;;;4937226;29;20027;-84
2021/07/09 06:04:47;;;;;;;500.13;406.17;;;;;;;;;;4936930;28;20483;-83
2021/07/09 06:07:14;;;;;;;501.50;409.50;;;;;;;;;;4934006;29;20487;-83
2021/07/09 06:09:40;;;;;;;488.33;406.45;;;;;;;;;;4933232;29;20023;-85
2021/07/09 06:12:07;;;;;;;491.85;409.38;;;;;;;;;;4932574;29;20118;-84
2021/07/09 06:14:33;;;;;;;498.55;417.55;;;;;;;;;;4944891;28;20032;-83
2021/07/09 06:16:59;;;;;;;493.60;413.30;;;;;;;;;;4942829;29;20582;-82
2021/07/09 06:19:25;;;;;;;493.60;412.38;;;;;;;;;;4940350;29;20031;-85
2021/07/09 06:21:51;;;;;;;495.75;415.35;;;;;;;;;;4934877;29;20436;-84
2021/07/09 06:24:17;;;;;;;493.48;416.55;;;;;;;;;;4928949;29;20038;-85
2021/07/09 06:26:43;;;;;;;498.40;421.35;;;;;;;;;;4936677;29;20135;-86
2021/07/09 06:29:10;;;;;;;497.17;419.13;;;;;;;;;;4936720;29;20548;-85
2021/07/09 06:31:36;;;;;;;502.05;424.33;;;;;;;;;;4937125;29;20047;-87
2021/07/09 06:37:06;;;;;;;504.52;425.13;;;;;;;;;;4941753;29;20043;-87
2021/07/09 06:39:32;;;;;;;525.35;430.80;;;;;;;;;;4933667;29;20027;-84
2021/07/09 06:41:58;;;;;;;506.60;429.60;;;;;;;;;;4937081;29;20099;-86
2021/07/09 06:44:24;;;;;;;502.15;427.75;;;;;;;;;;4944144;29;20027;-90
2021/07/09 06:47:23;;;;;;;503.67;425.05;;;;;;;;;;4937836;28;20028;-88
2021/07/09 06:49:50;;;;;;;504.73;426.88;;;;;;;;;;4937230;29;20063;-88
2021/07/09 06:52:18;;;;;;;545.58;464.13;;;;;;;;;;4934867;29;20484;-84
2021/07/09 06:54:45;;;;;;;671.67;597.65;;;;;;;;;;4936760;29;20043;-89
2021/07/09 06:57:11;;;;;;;527.22;453.95;;;;;;;;;;4957306;28;20534;-90
2021/07/09 07:00:08;;;;;;;891.63;794.60;;;;;;;;;;4944379;29;20027;-90
2021/07/09 07:02:34;;;;;;;536.05;458.35;;;;;;;;;;4941515;29;20038;-89
2021/07/09 07:05:01;;;;;;;510.73;434.60;;;;;;;;;;4957469;28;20054;-90
2021/07/09 07:07:27;;;;;;;509.30;440.13;;;;;;;;;;4944458;29;20089;-88
2021/07/09 07:09:53;;;;;;;510.02;439.75;;;;;;;;;;4929079;29;20035;-88
2021/07/09 07:12:38;;;;;;;507.75;437.65;;;;;;;;;;4945020;29;20038;-87
2021/07/09 07:15:05;;;;;;;511.25;436.50;;;;;;;;;;4961790;29;20067;-91
2021/07/09 07:17:32;;;;;;;515.72;444.20;;;;;;;;;;4940826;29;20031;-86
2021/07/09 07:19:58;;;;;;;515.28;446.92;;;;;;;;;;4939385;29;20428;-88
2021/07/09 07:22:24;;;;;;;512.92;449.52;;;;;;;;;;4960939;29;20078;-89
2021/07/09 07:25:09;;;;;;;508.27;444.83;;;;;;;;;;4939983;29;20034;-85
2021/07/09 07:27:35;;;;;;;507.33;439.67;;;;;;;;;;4960510;28;20043;-90
2021/07/09 07:30:01;;;;;;;506.33;437.75;;;;;;;;;;4942740;29;20034;-84
2021/07/09 07:32:27;;;;;;;507.85;443.95;;;;;;;;;;4960876;29;20475;-88
2021/07/09 07:34:54;;;;;;;510.88;445.75;;;;;;;;;;4942202;29;20356;-86
2021/07/09 07:37:29;;;;;;;515.53;451.88;;;;;;;;;;4941317;29;20027;-83
2021/07/09 07:39:55;;;;;;;513.53;455.10;;;;;;;;;;4957168;28;20674;-89
2021/07/09 07:42:21;;;;;;;520.15;462.70;;;;;;;;;;4922751;29;20042;-82
2021/07/09 07:44:47;;;;;;;513.58;456.85;;;;;;;;;;4942169;29;20027;-84
2021/07/09 07:47:13;;;;;;;512.97;456.25;;;;;;;;;;4942198;28;20110;-90
2021/07/09 07:49:39;;;;;;;517.22;460.52;;;;;;;;;;4954066;29;20028;-88
2021/07/09 07:52:05;;;;;;;518.08;461.35;;;;;;;;;;4941567;29;20444;-86
2021/07/09 07:54:31;;;;;;;518.08;461.25;;;;;;;;;;4942725;29;20027;-86
2021/07/09 07:56:59;;;;;;;518.58;461.98;;;;;;;;;;4941373;29;20038;-86
2021/07/09 07:59:28;;;;;;;516.50;459.98;;;;;;;;;;4938521;29;20036;-85
2021/07/09 08:01:54;;;;;;;513.30;456.75;;;;;;;;;;4954743;28;20034;-87
2021/07/09 08:04:21;;;;;;;540.53;482.02;;;;;;;;;;4932567;28;20031;-87
2021/07/09 08:06:47;;;;;;;522.20;464.92;;;;;;;;;;4940305;29;20039;-86
2021/07/09 08:09:14;;;;;;;524.58;467.38;;;;;;;;;;4942896;29;20463;-87
2021/07/09 08:11:50;;;;;;;527.53;470.98;;;;;;;;;;4955277;29;20032;-86
2021/07/09 08:14:17;;;;;;;542.17;485.13;;;;;;;;;;4939140;29;20050;-87
2021/07/09 08:16:43;;;;;;;554.83;497.60;;;;;;;;;;4937766;29;20051;-86
2021/07/09 08:19:09;;;;;;;560.67;503.58;;;;;;;;;;4949557;29;20031;-85
2021/07/09 08:21:35;;;;;;;571.08;513.88;;;;;;;;;;4968958;28;20031;-86
2021/07/09 08:24:04;;;;;;;583.25;526.03;;;;;;;;;;4936179;29;20034;-85
2021/07/09 08:26:30;;;;;;;586.37;529.13;;;;;;;;;;4939934;29;20024;-79
2021/07/09 08:28:56;;;;;;;602.25;544.47;;;;;;;;;;4956541;29;20031;-87
2021/07/09 08:31:23;;;;;;;599.45;542.03;;;;;;;;;;4955623;29;20063;-87
2021/07/09 08:33:50;;;;;;;620.55;562.30;;;;;;;;;;4943512;29;20580;-81
2021/07/09 08:36:35;;;;;;;614.25;556.63;;;;;;;;;;4938058;29;20033;-89
2021/07/09 08:39:01;;;;;;;613.38;555.80;;;;;;;;;;4947589;29;20024;-86
2021/07/09 08:41:27;;;;;;;614.42;556.72;;;;;;;;;;4956640;29;20098;-84
2021/07/09 08:43:53;;;;;;;616.50;558.80;;;;;;;;;;4938114;29;20106;-84
2021/07/09 08:46:21;;;;;;;605.38;548.08;;;;;;;;;;4938309;29;20034;-83
2021/07/09 08:48:46;;;;;;;615.65;557.50;;;;;;;;;;4929690;29;20019;-85
2021/07/09 08:51:12;;;;;;;612.35;554.40;;;;;;;;;;4951560;28;20125;-85
2021/07/09 08:53:39;;;;;;;606.47;548.97;;;;;;;;;;4932264;29;20313;-83
2021/07/09 08:56:05;;;;;;;606.60;549.10;;;;;;;;;;4932143;29;20038;-81
2021/07/09 08:58:31;;;;;;;611.63;553.78;;;;;;;;;;4950144;28;20387;-84
2021/07/09 09:01:25;;;;;;;601.75;544.45;;;;;;;;;;4953890;28;20110;-82
2021/07/09 09:04:02;;;;;;;600.78;543.40;;;;;;;;;;4928255;29;20039;-83
2021/07/09 09:06:28;;;;;;;613.47;555.53;;;;;;;;;;4937935;29;20050;-81
2021/07/09 09:08:54;;;;;;;605.65;548.22;;;;;;;;;;4938517;29;20035;-81
2021/07/09 09:11:20;;;;;;;611.10;553.28;;;;;;;;;;4938411;29;20051;-82
2021/07/09 09:13:47;;;;;;;603.70;546.28;;;;;;;;;;4925937;29;20467;-82
2021/07/09 09:16:15;;;;;;;603.75;546.30;;;;;;;;;;4948442;29;20082;-84
2021/07/09 09:18:42;;;;;;;614.15;556.33;;;;;;;;;;4934857;29;20031;-84
2021/07/09 09:21:09;;;;;;;613.03;555.30;;;;;;;;;;4936847;29;20031;-83
2021/07/09 09:23:37;;;;;;;607.60;550.03;;;;;;;;;;4947733;29;20031;-80
2021/07/09 09:32:11;;;;;;;628.28;570.10;;;;;;;;;;4936915;29;20043;-82
2021/07/09 09:34:40;;;;;;;635.13;577.00;;;;;;;;;;4949448;29;20110;-81
2021/07/09 09:37:06;;;;;;;645.47;587.30;;;;;;;;;;4938319;29;20419;-86
2021/07/09 09:39:32;;;;;;;658.15;599.63;;;;;;;;;;4938044;29;20031;-81
2021/07/09 09:45:07;;;;;;;673.58;614.55;;;;;;;;;;4955780;29;20029;-83
2021/07/09 09:47:36;;;;;;;675.05;616.25;;;;;;;;;;4938385;29;20031;-88
2021/07/09 09:50:03;;;;;;;702.00;642.22;;;;;;;;;;4938465;29;20063;-82
2021/07/09 09:52:36;;;;;;;711.75;651.88;;;;;;;;;;4938841;29;20114;-80
2021/07/09 09:55:04;;;;;;;715.53;655.80;;;;;;;;;;4935083;29;20114;-84
2021/07/09 09:57:30;;;;;;;714.88;654.97;;;;;;;;;;4937164;29;20035;-80
2021/07/09 09:59:56;;;;;;;711.50;651.92;;;;;;;;;;4930376;29;20503;-83
2021/07/09 10:02:25;;;;;;;724.78;664.83;;;;;;;;;;4934798;29;20035;-82
2021/07/09 10:04:54;;;;;;;730.55;670.20;;;;;;;;;;4939677;29;20023;-85
2021/07/09 10:07:20;;;;;;;723.47;663.25;;;;;;;;;;4930466;29;20472;-82
2021/07/09 10:09:59;;;;;;;741.42;680.53;;;;;;;;;;4937184;29;20031;-84
2021/07/09 10:12:28;;;;;;;738.63;678.17;;;;;;;;;;4933267;29;20533;-82
2021/07/09 10:14:55;;;;;;;753.87;693.17;;;;;;;;;;4935017;29;20031;-82
2021/07/09 10:17:22;;;;;;;764.53;703.28;;;;;;;;;;4931776;29;20028;-83
2021/07/09 10:19:48;;;;;;;767.47;706.85;;;;;;;;;;4932383;29;20039;-82
2021/07/09 10:22:17;;;;;;;771.38;711.13;;;;;;;;;;4935931;29;20027;-88
2021/07/09 10:24:43;;;;;;;770.63;710.38;;;;;;;;;;4938145;29;20126;-88
2021/07/09 10:27:10;;;;;;;776.42;716.22;;;;;;;;;;4931100;28;20031;-80
2021/07/09 10:29:42;;;;;;;780.78;720.42;;;;;;;;;;4929929;29;20027;-84
2021/07/09 10:32:09;;;;;;;783.55;723.15;;;;;;;;;;4924736;29;20034;-84
2021/07/09 10:34:49;;;;;;;781.92;721.50;;;;;;;;;;4931411;29;20059;-85
2021/07/09 10:37:19;;;;;;;763.28;703.35;;;;;;;;;;4931223;29;20483;-87
2021/07/09 10:39:48;;;;;;;749.17;689.28;;;;;;;;;;4936135;29;20098;-83
2021/07/09 10:42:14;;;;;;;740.67;680.75;;;;;;;;;;4933550;29;20028;-88
2021/07/09 10:45:05;;;;;;;729.28;669.70;;;;;;;;;;4934398;29;20039;-81
2021/07/09 10:47:40;;;;;;;731.92;672.20;;;;;;;;;;4934509;29;20024;-84
2021/07/09 10:50:08;;;;;;;735.28;675.55;;;;;;;;;;4933981;29;20078;-87
2021/07/09 10:52:43;;;;;;;737.75;678.08;;;;;;;;;;4937884;29;20028;-85
2021/07/09 10:58:21;;;;;;;700.78;641.80;;;;;;;;;;4949679;29;20576;-87
2021/07/09 11:00:47;;;;;;;690.33;631.40;;;;;;;;;;4938118;29;20844;-84
2021/07/09 11:03:35;;;;;;;687.13;627.97;;;;;;;;;;4934259;29;20027;-87
2021/07/09 11:06:24;;;;;;;680.58;621.45;;;;;;;;;;4934427;29;20515;-83
2021/07/09 11:08:51;;;;;;;;;;;;;;;;;;4922413;28;20087;-85
2021/07/09 11:11:35;;;;;;;668.88;610.00;;;;;;;;;;4937327;29;19978;-83
2021/07/09 11:14:03;;;;;;;659.10;600.70;;;;;;;;;;4936331;29;20070;-88
2021/07/09 11:16:46;;;;;;;669.13;610.70;;;;;;;;;;4931961;29;20475;-85
2021/07/09 11:19:14;;;;;;;669.55;611.08;;;;;;;;;;4954237;29;20023;-88
2021/07/09 11:21:40;;;;;;;656.67;598.55;;;;;;;;;;4954499;29;20050;-85
2021/07/09 11:24:10;;;;;;;667.80;609.20;;;;;;;;;;4937518;29;20411;-81
2021/07/09 11:26:42;;;;;;;667.00;608.38;;;;;;;;;;4944967;29;20035;-85
2021/07/09 11:29:28;;;;;;;648.55;590.78;;;;;;;;;;4948467;28;20035;-85
2021/07/09 11:31:55;;;;;;;650.72;592.90;;;;;;;;;;4953084;29;20049;-86
2021/07/09 11:34:22;;;;;;;664.05;605.60;;;;;;;;;;4937279;29;20054;-84
2021/07/09 11:36:56;;;;;;;646.38;589.08;;;;;;;;;;4946328;28;20030;-86
2021/07/09 11:39:25;;;;;;;640.00;582.72;;;;;;;;;;4945515;29;20024;-86
2021/07/09 11:41:55;;;;;;;648.10;590.63;;;;;;;;;;4950668;28;20034;-81
2021/07/09 11:44:23;;;;;;;648.50;591.15;;;;;;;;;;4937800;29;20387;-84
2021/07/09 11:46:51;;;;;;;664.72;606.80;;;;;;;;;;4937312;28;20095;-86
2021/07/09 11:49:18;;;;;;;671.33;613.20;;;;;;;;;;4935013;29;20174;-80
2021/07/09 11:51:51;;;;;;;667.75;609.92;;;;;;;;;;4953753;29;20077;-84
2021/07/09 11:54:21;;;;;;;660.10;602.65;;;;;;;;;;4931578;29;20087;-84
2021/07/09 11:56:51;;;;;;;664.47;606.90;;;;;;;;;;4934490;28;20027;-85
2021/07/09 11:59:20;;;;;;;653.78;596.50;;;;;;;;;;4947317;28;20035;-84
2021/07/09 12:02:07;;;;;;;643.75;586.70;;;;;;;;;;4946994;28;20458;-86
2021/07/09 12:04:43;;;;;;;645.83;588.58;;;;;;;;;;4925011;28;20035;-85
2021/07/09 12:07:46;;;;;;;642.25;585.03;;;;;;;;;;4931485;28;20391;-82
2021/07/09 12:10:20;;;;;;;630.50;573.60;;;;;;;;;;4943919;28;20023;-83
2021/07/09 12:12:53;;;;;;;654.10;596.65;;;;;;;;;;4943748;29;20356;-83
2021/07/09 12:15:21;;;;;;;659.97;602.80;;;;;;;;;;4939747;29;20051;-85
2021/07/09 12:17:49;;;;;;;670.20;612.92;;;;;;;;;;4935418;29;20041;-89
2021/07/09 12:20:16;;;;;;;677.00;619.67;;;;;;;;;;4939640;29;20031;-88
2021/07/09 12:22:53;;;;;;;695.45;637.47;;;;;;;;;;4938946;29;20049;-85
2021/07/09 12:25:27;;;;;;;691.03;633.45;;;;;;;;;;4933925;29;20031;-87
2021/07/09 12:28:06;;;;;;;702.60;644.67;;;;;;;;;;4939740;29;20035;-85
2021/07/09 12:30:36;;;;;;;704.20;646.33;;;;;;;;;;4939236;29;20032;-85
2021/07/09 12:33:04;;;;;;;710.83;652.90;;;;;;;;;;4934887;29;20031;-84
2021/07/09 12:35:32;;;;;;;699.92;642.20;;;;;;;;;;4952305;29;20027;-83
2021/07/09 12:38:00;;;;;;;694.83;637.03;;;;;;;;;;4952650;29;20024;-84
2021/07/09 12:40:33;;;;;;;684.17;626.50;;;;;;;;;;4947964;28;20050;-83
2021/07/09 12:43:09;;;;;;;674.08;616.55;;;;;;;;;;4946353;28;20031;-86
2021/07/09 12:45:35;;;;;;;664.10;606.67;;;;;;;;;;4935397;29;20167;-85
2021/07/09 12:48:01;;;;;;;661.70;604.35;;;;;;;;;;4952744;29;20035;-82
2021/07/09 12:50:29;;;;;;;663.50;606.08;;;;;;;;;;4936429;29;20038;-88
2021/07/09 12:52:55;;;;;;;661.28;603.90;;;;;;;;;;4931649;29;20027;-87
2021/07/09 12:55:34;;;;;;;653.72;596.50;;;;;;;;;;4936008;29;20035;-87
2021/07/09 12:58:13;;;;;;;627.87;571.33;;;;;;;;;;4953270;29;20488;-87
2021/07/09 13:00:51;;;;;;;628.85;571.97;;;;;;;;;;4932860;29;20331;-83
2021/07/09 13:03:24;;;;;;;633.03;575.88;;;;;;;;;;4945650;29;20087;-86
2021/07/09 13:06:03;;;;;;;640.00;582.90;;;;;;;;;;4925786;29;20376;-84
2021/07/09 13:08:30;;;;;;;655.05;597.75;;;;;;;;;;4928446;29;20044;-84
2021/07/09 13:11:16;;;;;;;678.58;620.88;;;;;;;;;;4938796;29;20023;-85
2021/07/09 13:13:43;;;;;;;686.42;628.67;;;;;;;;;;4933896;29;20095;-83
2021/07/09 13:16:13;;;;;;;692.13;634.08;;;;;;;;;;4951259;29;20025;-87
2021/07/09 13:18:40;;;;;;;673.28;615.75;;;;;;;;;;4946263;29;20037;-88
2021/07/09 13:21:08;;;;;;;673.03;615.13;;;;;;;;;;4937562;29;20080;-89
2021/07/09 13:23:55;;;;;;;672.15;614.42;;;;;;;;;;4947120;28;20941;-85
2021/07/09 13:26:25;;;;;;;656.60;599.47;;;;;;;;;;4928968;29;20027;-88
2021/07/09 13:28:51;;;;;;;;;;;;;;;;;;4938089;28;20047;-87
2021/07/09 13:31:18;;;;;;;636.38;579.58;;;;;;;;;;4953667;29;20367;-85
2021/07/09 13:33:48;;;;;;;633.40;576.42;;;;;;;;;;4932480;29;20488;-82
2021/07/09 13:36:42;;;;;;;625.50;568.78;;;;;;;;;;4930037;29;20023;-81
2021/07/09 13:39:08;;;;;;;629.55;572.42;;;;;;;;;;4944524;29;20034;-84
2021/07/09 13:41:35;;;;;;;635.97;578.92;;;;;;;;;;4937422;29;20031;-85
2021/07/09 13:44:01;;;;;;;649.85;592.63;;;;;;;;;;4937151;29;20044;-86
2021/07/09 13:46:27;;;;;;;646.15;589.20;;;;;;;;;;4954137;28;20565;-86
2021/07/09 13:48:53;;;;;;;649.28;592.30;;;;;;;;;;4938076;29;20035;-85
2021/07/09 13:51:20;;;;;;;659.80;602.38;;;;;;;;;;4936810;29;20476;-91
2021/07/09 13:53:46;;;;;;;661.30;604.10;;;;;;;;;;4937854;29;20035;-86
2021/07/09 13:56:12;;;;;;;670.40;613.00;;;;;;;;;;4950005;29;20037;-89
2021/07/09 13:58:45;;;;;;;662.20;604.85;;;;;;;;;;4946863;29;20083;-88
2021/07/09 14:01:16;;;;;;;661.13;603.75;;;;;;;;;;4945054;29;20062;-84
2021/07/09 14:03:42;;;;;;;664.25;607.03;;;;;;;;;;4951934;29;20030;-87
2021/07/09 14:06:09;;;;;;;655.13;598.13;;;;;;;;;;4954871;29;20114;-78
2021/07/09 14:08:35;;;;;;;651.42;594.33;;;;;;;;;;4935593;29;20042;-81
2021/07/09 14:11:32;;;;;;;647.15;590.13;;;;;;;;;;4950049;29;20027;-87
2021/07/09 14:13:58;;;;;;;632.95;576.20;;;;;;;;;;4936314;29;20349;-82
2021/07/09 14:16:24;;;;;;;631.95;575.10;;;;;;;;;;4937717;29;20034;-87
2021/07/09 14:18:50;;;;;;;622.38;565.75;;;;;;;;;;4937472;29;20028;-86
2021/07/09 14:21:16;;;;;;;620.85;564.17;;;;;;;;;;4952407;29;20031;-92
2021/07/09 14:23:45;;;;;;;625.08;567.92;;;;;;;;;;4932103;29;20023;-86